createdAt,value
2019-03-02T00:00:09.879Z,62.05
2019-03-02T00:01:13.297Z,61.49
2019-03-02T00:02:09.866Z,61.87
2019-03-02T00:03:09.858Z,62.34
2019-03-02T00:04:10.079Z,61.68
2019-03-02T00:05:09.845Z,63.29
2019-03-02T00:06:09.839Z,62.24
2019-03-02T00:07:11.248Z,60.92
2019-03-02T00:08:09.824Z,61.11
2019-03-02T00:09:09.818Z,61.01
2019-03-02T00:10:09.945Z,60.73
2019-03-02T00:11:09.806Z,59.88
2019-03-02T00:12:09.799Z,58.54
2019-03-02T00:13:09.792Z,58.83
2019-03-02T00:14:09.786Z,58.83
2019-03-02T00:15:09.779Z,57.59
2019-03-02T00:16:09.772Z,58.54
2019-03-02T00:17:09.766Z,58.07
2019-03-02T00:18:09.759Z,57.21
2019-03-02T00:19:09.753Z,56.55
2019-03-02T00:20:09.748Z,55.32
2019-03-02T00:21:09.742Z,54.18
2019-03-02T00:22:09.735Z,54.37
2019-03-02T00:23:09.727Z,54.37
2019-03-02T00:24:09.720Z,53.80
2019-03-02T00:25:09.715Z,52.56
2019-03-02T00:26:10.288Z,53.42
2019-03-02T00:27:09.703Z,53.33
2019-03-02T00:28:09.693Z,52.76
2019-03-02T00:29:11.048Z,52.47
2019-03-02T00:30:09.684Z,53.42
2019-03-02T00:31:09.676Z,54.08
2019-03-02T00:32:10.506Z,52.95
2019-03-02T00:33:11.426Z,52.76
2019-03-02T00:34:09.657Z,52.76
2019-03-02T00:35:09.650Z,54.27
2019-03-02T00:36:09.643Z,57.31
2019-03-02T00:37:09.637Z,58.26
2019-03-02T00:38:10.096Z,59.59
2019-03-02T00:39:09.626Z,60.82
2019-03-02T00:40:09.620Z,61.96
2019-03-02T00:41:09.609Z,60.92
2019-03-02T00:42:09.603Z,60.63
2019-03-02T00:43:09.597Z,61.49
2019-03-02T00:44:09.590Z,62.53
2019-03-02T00:45:10.638Z,61.30
2019-03-02T00:46:09.578Z,60.16
2019-03-02T00:47:09.572Z,60.44
2019-03-02T00:48:11.101Z,60.73
2019-03-02T00:49:09.559Z,60.53
2019-03-02T00:50:09.551Z,60.53
2019-03-02T00:51:11.257Z,61.01
2019-03-02T00:52:09.540Z,60.44
2019-03-02T00:53:09.533Z,59.88
2019-03-02T00:54:11.360Z,58.73
2019-03-02T00:55:09.521Z,58.92
2019-03-02T00:56:09.517Z,58.45
2019-03-02T00:57:09.506Z,56.65
2019-03-02T00:58:09.501Z,55.98
2019-03-02T00:59:09.495Z,54.94
2019-03-02T01:00:11.677Z,53.80
2019-03-02T01:01:09.481Z,53.42
2019-03-02T01:02:09.475Z,52.37
2019-03-02T01:03:12.034Z,52.19
2019-03-02T01:04:09.460Z,51.24
2019-03-02T01:05:09.455Z,50.76
2019-03-02T01:06:12.695Z,50.20
2019-03-02T01:07:09.442Z,50.01
2019-03-02T01:08:09.439Z,49.43
2019-03-02T01:09:11.700Z,49.05
2019-03-02T01:10:09.424Z,48.49
2019-03-02T01:11:09.435Z,48.11
2019-03-02T01:12:09.866Z,48.01
2019-03-02T01:13:09.403Z,47.44
2019-03-02T01:14:09.397Z,47.82
2019-03-02T01:15:09.391Z,48.11
2019-03-02T01:16:09.384Z,48.96
2019-03-02T01:17:09.378Z,48.11
2019-03-02T01:18:09.371Z,48.11
2019-03-02T01:19:09.365Z,48.01
2019-03-02T01:20:09.358Z,48.11
2019-03-02T01:21:09.352Z,48.77
2019-03-02T01:22:09.346Z,49.05
2019-03-02T01:23:09.339Z,49.05
2019-03-02T01:24:09.332Z,49.05
2019-03-02T01:25:10.372Z,48.58
2019-03-02T01:26:09.320Z,49.34
2019-03-02T01:27:09.314Z,49.24
2019-03-02T01:28:09.672Z,49.15
2019-03-02T01:29:09.301Z,49.05
2019-03-02T01:30:09.294Z,49.05
2019-03-02T01:31:09.289Z,49.15
2019-03-02T01:32:09.282Z,49.15
2019-03-02T01:33:09.275Z,49.34
2019-03-02T01:34:09.270Z,49.43
2019-03-02T01:35:09.262Z,49.05
2019-03-02T01:36:09.256Z,49.34
2019-03-02T01:37:09.250Z,48.96
2019-03-02T01:38:09.242Z,48.96
2019-03-02T01:39:09.236Z,48.96
2019-03-02T01:40:09.229Z,49.05
2019-03-02T01:41:09.225Z,48.96
2019-03-02T01:42:09.217Z,49.05
2019-03-02T01:43:09.211Z,48.49
2019-03-02T01:44:09.204Z,48.20
2019-03-02T01:45:09.198Z,49.05
2019-03-02T01:46:09.193Z,48.30
2019-03-02T01:47:09.186Z,48.39
2019-03-02T01:48:09.178Z,47.73
2019-03-02T01:49:09.173Z,47.63
2019-03-02T01:50:11.933Z,47.06
2019-03-02T01:51:09.160Z,46.88
2019-03-02T01:52:09.153Z,46.11
2019-03-02T01:53:09.869Z,46.88
2019-03-02T01:54:09.140Z,48.49
2019-03-02T01:55:09.135Z,48.11
2019-03-02T01:56:09.127Z,47.63
2019-03-02T01:57:09.121Z,47.34
2019-03-02T01:58:09.114Z,47.25
2019-03-02T01:59:09.108Z,46.97
2019-03-02T02:00:10.519Z,46.88
2019-03-02T02:01:09.094Z,47.92
2019-03-02T02:02:09.089Z,47.73
2019-03-02T02:03:12.115Z,47.44
2019-03-02T02:04:09.075Z,46.11
2019-03-02T02:05:09.070Z,46.30
2019-03-02T02:06:09.063Z,47.82
2019-03-02T02:07:09.056Z,47.16
2019-03-02T02:08:09.049Z,47.06
2019-03-02T02:09:09.042Z,46.11
2019-03-02T02:10:09.037Z,46.40
2019-03-02T02:11:09.031Z,45.54
2019-03-02T02:12:09.023Z,46.21
2019-03-02T02:13:09.017Z,45.73
2019-03-02T02:14:09.013Z,45.73
2019-03-02T02:15:09.005Z,45.26
2019-03-02T02:16:08.998Z,44.40
2019-03-02T02:17:08.994Z,43.93
2019-03-02T02:18:08.983Z,43.55
2019-03-02T02:19:08.978Z,43.46
2019-03-02T02:20:11.053Z,43.08
2019-03-02T02:21:08.964Z,42.79
2019-03-02T02:22:08.958Z,42.51
2019-03-02T02:23:09.922Z,42.03
2019-03-02T02:24:08.945Z,41.46
2019-03-02T02:25:08.937Z,41.66
2019-03-02T02:26:11.286Z,40.99
2019-03-02T02:27:08.925Z,40.89
2019-03-02T02:28:08.917Z,41.08
2019-03-02T02:29:09.561Z,41.08
2019-03-02T02:30:08.906Z,40.33
2019-03-02T02:31:08.900Z,39.76
2019-03-02T02:32:08.957Z,40.33
2019-03-02T02:33:08.886Z,40.21
2019-03-02T02:34:08.879Z,39.45
2019-03-02T02:35:08.874Z,38.60
2019-03-02T02:36:08.867Z,38.50
2019-03-02T02:37:08.865Z,38.43
2019-03-02T02:38:11.065Z,37.74
2019-03-02T02:39:08.847Z,37.37
2019-03-02T02:40:12.489Z,37.08
2019-03-02T02:41:08.833Z,36.89
2019-03-02T02:42:08.827Z,36.42
2019-03-02T02:43:08.821Z,36.80
2019-03-02T02:44:08.813Z,36.32
2019-03-02T02:45:11.042Z,34.99
2019-03-02T02:46:08.801Z,34.42
2019-03-02T02:47:12.207Z,34.33
2019-03-02T02:48:08.787Z,33.86
2019-03-02T02:49:10.115Z,33.48
2019-03-02T02:50:08.778Z,33.29
2019-03-02T02:51:10.082Z,33.00
2019-03-02T02:52:08.760Z,32.53
2019-03-02T02:53:08.755Z,31.96
2019-03-02T02:54:08.755Z,32.62
2019-03-02T02:55:08.742Z,31.96
2019-03-02T02:56:08.733Z,31.87
2019-03-02T02:57:08.728Z,31.48
2019-03-02T02:58:12.709Z,30.91
2019-03-02T02:59:08.715Z,30.44
2019-03-02T03:00:12.023Z,30.16
2019-03-02T03:01:08.701Z,29.97
2019-03-02T03:02:10.915Z,29.11
2019-03-02T03:03:08.690Z,29.21
2019-03-02T03:04:08.685Z,28.83
2019-03-02T03:05:10.041Z,28.36
2019-03-02T03:06:08.673Z,28.45
2019-03-02T03:07:12.294Z,28.45
2019-03-02T03:08:08.665Z,28.07
2019-03-02T03:09:09.735Z,27.88
2019-03-02T03:10:08.644Z,27.22
2019-03-02T03:11:08.642Z,27.22
2019-03-02T03:12:08.637Z,26.55
2019-03-02T03:13:08.623Z,25.89
2019-03-02T03:14:08.615Z,25.42
2019-03-02T03:15:08.611Z,24.85
2019-03-02T03:16:11.721Z,24.28
2019-03-02T03:17:08.607Z,24.28
2019-03-02T03:18:12.565Z,23.52
2019-03-02T03:19:08.584Z,23.24
2019-03-02T03:20:10.381Z,22.76
2019-03-02T03:21:08.570Z,22.19
2019-03-02T03:22:09.164Z,22.00
2019-03-02T03:23:08.559Z,22.09
2019-03-02T03:24:08.550Z,22.00
2019-03-02T03:25:08.559Z,21.34
2019-03-02T03:26:08.537Z,20.77
2019-03-02T03:27:08.975Z,20.57
2019-03-02T03:28:08.524Z,20.67
2019-03-02T03:29:09.672Z,20.48
2019-03-02T03:30:08.510Z,20.39
2019-03-02T03:31:22.193Z,20.10
2019-03-02T03:32:11.637Z,20.20
2019-03-02T03:33:08.509Z,19.82
2019-03-02T03:34:08.487Z,19.63
2019-03-02T03:35:15.492Z,19.44
2019-03-02T03:36:08.471Z,19.44
2019-03-02T03:37:12.741Z,19.25
2019-03-02T03:38:08.461Z,18.59
2019-03-02T03:39:09.223Z,18.49
2019-03-02T03:40:08.444Z,18.02
2019-03-02T03:41:08.442Z,17.54
2019-03-02T03:42:08.432Z,17.64
2019-03-02T03:43:08.428Z,17.16
2019-03-02T03:44:08.421Z,17.16
2019-03-02T03:45:08.412Z,17.07
2019-03-02T03:46:08.404Z,16.97
2019-03-02T03:47:08.399Z,17.07
2019-03-02T03:48:12.803Z,17.26
2019-03-02T03:49:08.387Z,17.35
2019-03-02T03:50:09.198Z,17.26
2019-03-02T03:51:08.381Z,17.54
2019-03-02T03:52:09.317Z,17.07
2019-03-02T03:53:08.360Z,17.07
2019-03-02T03:54:08.952Z,17.26
2019-03-02T03:55:08.348Z,17.16
2019-03-02T03:56:08.340Z,17.16
2019-03-02T03:57:08.333Z,16.69
2019-03-02T03:58:08.336Z,16.88
2019-03-02T03:59:08.319Z,17.07
2019-03-02T04:00:08.312Z,16.97
2019-03-02T04:01:13.012Z,16.69
2019-03-02T04:02:08.305Z,16.88
2019-03-02T04:03:09.067Z,16.31
2019-03-02T04:04:08.287Z,16.41
2019-03-02T04:05:09.792Z,17.07
2019-03-02T04:06:08.273Z,16.60
2019-03-02T04:07:08.295Z,16.22
2019-03-02T04:08:08.258Z,16.60
2019-03-02T04:09:09.922Z,16.41
2019-03-02T04:10:08.247Z,16.03
2019-03-02T04:11:08.243Z,15.36
2019-03-02T04:12:08.235Z,15.64
2019-03-02T04:13:08.227Z,15.26
2019-03-02T04:14:08.220Z,15.36
2019-03-02T04:15:08.212Z,15.36
2019-03-02T04:16:08.205Z,15.17
2019-03-02T04:17:08.199Z,14.70
2019-03-02T04:18:08.194Z,14.70
2019-03-02T04:19:08.189Z,14.98
2019-03-02T04:20:12.576Z,14.51
2019-03-02T04:21:08.172Z,14.79
2019-03-02T04:22:08.220Z,14.70
2019-03-02T04:23:08.165Z,15.08
2019-03-02T04:24:08.177Z,15.17
2019-03-02T04:25:08.148Z,14.51
2019-03-02T04:26:08.141Z,14.98
2019-03-02T04:27:11.042Z,14.89
2019-03-02T04:28:08.127Z,14.61
2019-03-02T04:29:10.023Z,13.65
2019-03-02T04:30:08.113Z,14.13
2019-03-02T04:31:09.089Z,13.56
2019-03-02T04:32:08.101Z,13.37
2019-03-02T04:33:08.095Z,13.37
2019-03-02T04:34:08.090Z,12.71
2019-03-02T04:35:08.081Z,12.90
2019-03-02T04:36:10.172Z,12.90
2019-03-02T04:37:08.082Z,12.52
2019-03-02T04:38:08.061Z,12.42
2019-03-02T04:39:09.578Z,12.04
2019-03-02T04:40:08.048Z,12.14
2019-03-02T04:41:08.043Z,12.23
2019-03-02T04:42:08.034Z,12.33
2019-03-02T04:43:08.028Z,12.14
2019-03-02T04:44:08.021Z,12.14
2019-03-02T04:45:08.015Z,12.33
2019-03-02T04:46:08.009Z,11.94
2019-03-02T04:47:08.004Z,12.04
2019-03-02T04:48:07.997Z,11.85
2019-03-02T04:49:10.978Z,11.57
2019-03-02T04:50:07.982Z,11.29
2019-03-02T04:51:07.977Z,11.47
2019-03-02T04:52:07.969Z,11.66
2019-03-02T04:53:07.964Z,11.76
2019-03-02T04:54:07.955Z,11.76
2019-03-02T04:55:09.437Z,11.85
2019-03-02T04:56:07.943Z,11.76
2019-03-02T04:57:07.937Z,11.76
2019-03-02T04:58:08.601Z,11.85
2019-03-02T04:59:07.924Z,11.85
2019-03-02T05:00:07.916Z,11.47
2019-03-02T05:01:07.952Z,11.47
2019-03-02T05:02:07.904Z,10.81
2019-03-02T05:03:07.896Z,11.29
2019-03-02T05:04:07.889Z,11.38
2019-03-02T05:05:08.448Z,11.29
2019-03-02T05:06:07.877Z,12.04
2019-03-02T05:07:07.872Z,11.66
2019-03-02T05:08:07.863Z,12.04
2019-03-02T05:09:07.862Z,11.85
2019-03-02T05:10:07.852Z,11.76
2019-03-02T05:11:07.844Z,11.85
2019-03-02T05:12:07.838Z,11.85
2019-03-02T05:13:07.832Z,11.19
2019-03-02T05:14:07.824Z,11.38
2019-03-02T05:15:07.819Z,11.38
2019-03-02T05:16:07.811Z,11.29
2019-03-02T05:17:08.456Z,11.76
2019-03-02T05:18:07.798Z,11.66
2019-03-02T05:19:07.793Z,11.29
2019-03-02T05:20:07.785Z,11.57
2019-03-02T05:21:07.777Z,11.29
2019-03-02T05:22:07.771Z,11.19
2019-03-02T05:23:07.766Z,10.62
2019-03-02T05:24:09.180Z,10.71
2019-03-02T05:25:07.754Z,10.71
2019-03-02T05:26:07.746Z,10.62
2019-03-02T05:27:07.740Z,10.71
2019-03-02T05:28:08.129Z,10.90
2019-03-02T05:29:07.725Z,10.05
2019-03-02T05:30:07.725Z,10.14
2019-03-02T05:31:07.719Z,10.52
2019-03-02T05:32:07.706Z,10.33
2019-03-02T05:33:07.699Z,10.43
2019-03-02T05:34:07.693Z,10.24
2019-03-02T05:35:07.688Z,10.05
2019-03-02T05:36:07.679Z,10.33
2019-03-02T05:37:07.675Z,10.33
2019-03-02T05:38:07.667Z,10.33
2019-03-02T05:39:07.660Z,10.24
2019-03-02T05:40:07.653Z,10.05
2019-03-02T05:41:07.647Z,10.43
2019-03-02T05:42:10.435Z,10.33
2019-03-02T05:43:07.636Z,10.62
2019-03-02T05:44:07.627Z,10.62
2019-03-02T05:45:07.622Z,10.90
2019-03-02T05:46:07.614Z,10.71
2019-03-02T05:47:07.608Z,10.90
2019-03-02T05:48:07.603Z,10.81
2019-03-02T05:49:07.598Z,10.62
2019-03-02T05:50:07.590Z,10.71
2019-03-02T05:51:07.758Z,10.52
2019-03-02T05:52:07.576Z,11.19
2019-03-02T05:53:07.570Z,10.90
2019-03-02T05:54:07.649Z,11.00
2019-03-02T05:55:07.557Z,10.71
2019-03-02T05:56:07.551Z,10.52
2019-03-02T05:57:07.544Z,10.81
2019-03-02T05:58:07.537Z,10.52
2019-03-02T05:59:07.531Z,10.81
2019-03-02T06:00:07.523Z,10.90
2019-03-02T06:01:07.518Z,10.33
2019-03-02T06:02:07.511Z,10.33
2019-03-02T06:03:07.505Z,10.05
2019-03-02T06:04:07.497Z,10.05
2019-03-02T06:05:07.494Z,10.05
2019-03-02T06:06:07.485Z,9.58
2019-03-02T06:07:07.480Z,9.29
2019-03-02T06:08:07.473Z,9.20
2019-03-02T06:09:07.959Z,9.29
2019-03-02T06:10:07.461Z,9.10
2019-03-02T06:11:07.456Z,9.39
2019-03-02T06:12:07.446Z,9.39
2019-03-02T06:13:07.441Z,9.10
2019-03-02T06:14:07.968Z,9.20
2019-03-02T06:15:07.626Z,9.29
2019-03-02T06:16:07.423Z,8.91
2019-03-02T06:17:07.420Z,9.01
2019-03-02T06:18:07.671Z,9.20
2019-03-02T06:19:07.403Z,8.82
2019-03-02T06:20:07.396Z,9.10
2019-03-02T06:21:07.659Z,8.53
2019-03-02T06:22:07.384Z,8.63
2019-03-02T06:23:07.377Z,8.53
2019-03-02T06:24:07.369Z,8.53
2019-03-02T06:25:07.363Z,8.82
2019-03-02T06:26:07.357Z,8.25
2019-03-02T06:27:07.812Z,8.44
2019-03-02T06:28:07.343Z,8.06
2019-03-02T06:29:07.338Z,7.49
2019-03-02T06:30:08.394Z,7.40
2019-03-02T06:31:07.327Z,7.59
2019-03-02T06:32:07.319Z,8.06
2019-03-02T06:33:08.465Z,7.97
2019-03-02T06:34:07.306Z,8.34
2019-03-02T06:35:07.304Z,8.15
2019-03-02T06:36:08.774Z,8.53
2019-03-02T06:37:07.285Z,8.44
2019-03-02T06:38:07.282Z,8.44
2019-03-02T06:39:07.860Z,8.72
2019-03-02T06:40:07.268Z,8.72
2019-03-02T06:41:07.260Z,8.91
2019-03-02T06:42:09.829Z,8.63
2019-03-02T06:43:07.250Z,8.82
2019-03-02T06:44:07.241Z,9.01
2019-03-02T06:45:08.964Z,8.91
2019-03-02T06:46:07.230Z,8.91
2019-03-02T06:47:07.224Z,9.29
2019-03-02T06:48:09.617Z,9.11
2019-03-02T06:49:07.636Z,9.39
2019-03-02T06:50:07.204Z,9.30
2019-03-02T06:51:07.783Z,9.58
2019-03-02T06:52:07.192Z,9.77
2019-03-02T06:53:07.187Z,10.25
2019-03-02T06:54:08.950Z,10.82
2019-03-02T06:55:07.173Z,10.63
2019-03-02T06:56:07.165Z,10.63
2019-03-02T06:57:07.160Z,11.19
2019-03-02T06:58:07.152Z,11.38
2019-03-02T06:59:07.147Z,11.38
2019-03-02T07:00:07.140Z,11.29
2019-03-02T07:01:07.137Z,11.48
2019-03-02T07:02:07.127Z,11.29
2019-03-02T07:03:10.162Z,11.38
2019-03-02T07:04:07.113Z,11.86
2019-03-02T07:05:07.544Z,11.86
2019-03-02T07:06:08.590Z,11.76
2019-03-02T07:07:07.097Z,12.34
2019-03-02T07:08:07.088Z,12.24
2019-03-02T07:09:09.582Z,12.24
2019-03-02T07:10:07.076Z,12.05
2019-03-02T07:11:07.070Z,12.43
2019-03-02T07:12:09.468Z,12.43
2019-03-02T07:13:07.056Z,12.15
2019-03-02T07:14:07.057Z,12.43
2019-03-02T07:15:08.296Z,12.43
2019-03-02T07:16:07.036Z,12.90
2019-03-02T07:17:07.031Z,13.19
2019-03-02T07:18:08.035Z,13.85
2019-03-02T07:19:07.019Z,14.04
2019-03-02T07:20:07.011Z,14.89
2019-03-02T07:21:07.006Z,15.08
2019-03-02T07:22:07.000Z,15.18
2019-03-02T07:23:06.993Z,15.66
2019-03-02T07:24:06.987Z,16.13
2019-03-02T07:25:06.981Z,16.60
2019-03-02T07:26:06.978Z,16.89
2019-03-02T07:27:06.970Z,17.17
2019-03-02T07:28:07.451Z,17.93
2019-03-02T07:29:06.956Z,17.93
2019-03-02T07:30:06.950Z,17.74
2019-03-02T07:31:06.945Z,17.93
2019-03-02T07:32:06.936Z,18.31
2019-03-02T07:33:06.931Z,18.98
2019-03-02T07:34:08.705Z,19.17
2019-03-02T07:35:06.919Z,19.45
2019-03-02T07:36:06.912Z,19.35
2019-03-02T07:37:09.090Z,19.26
2019-03-02T07:38:08.304Z,19.64
2019-03-02T07:39:06.894Z,19.73
2019-03-02T07:40:09.057Z,20.11
2019-03-02T07:41:07.730Z,20.31
2019-03-02T07:42:06.876Z,20.31
2019-03-02T07:43:09.676Z,20.50
2019-03-02T07:44:06.864Z,20.31
2019-03-02T07:45:06.857Z,21.06
2019-03-02T07:46:08.151Z,21.25
2019-03-02T07:47:06.847Z,21.92
2019-03-02T07:48:06.839Z,22.49
2019-03-02T07:49:09.138Z,22.12
2019-03-02T07:50:06.828Z,22.67
2019-03-02T07:51:06.821Z,23.07
2019-03-02T07:52:06.814Z,22.97
2019-03-02T07:53:06.811Z,23.92
2019-03-02T07:54:07.368Z,24.21
2019-03-02T07:55:06.797Z,24.21
2019-03-02T07:56:06.790Z,24.77
2019-03-02T07:57:08.764Z,25.25
2019-03-02T07:58:06.789Z,25.73
2019-03-02T07:59:06.773Z,25.73
2019-03-02T08:00:06.769Z,25.92
2019-03-02T08:01:06.760Z,25.82
2019-03-02T08:02:07.420Z,25.82
2019-03-02T08:03:06.748Z,26.10
2019-03-02T08:04:06.740Z,26.20
2019-03-02T08:05:06.736Z,26.01
2019-03-02T08:06:06.730Z,26.29
2019-03-02T08:07:06.724Z,26.96
2019-03-02T08:08:07.093Z,27.25
2019-03-02T08:09:06.711Z,26.77
2019-03-02T08:10:06.706Z,27.06
2019-03-02T08:11:06.700Z,27.15
2019-03-02T08:12:06.696Z,27.06
2019-03-02T08:13:06.688Z,27.15
2019-03-02T08:14:08.855Z,27.34
2019-03-02T08:15:06.676Z,27.25
2019-03-02T08:16:06.669Z,27.34
2019-03-02T08:17:09.786Z,27.15
2019-03-02T08:18:06.658Z,27.53
2019-03-02T08:19:06.653Z,27.25
2019-03-02T08:20:06.645Z,27.25
2019-03-02T08:21:06.640Z,27.25
2019-03-02T08:22:07.795Z,27.44
2019-03-02T08:23:06.629Z,27.62
2019-03-02T08:24:06.622Z,27.15
2019-03-02T08:25:06.615Z,26.77
2019-03-02T08:26:06.610Z,26.29
2019-03-02T08:27:06.604Z,26.10
2019-03-02T08:28:06.792Z,26.29
2019-03-02T08:29:06.592Z,26.39
2019-03-02T08:30:06.589Z,26.20
2019-03-02T08:31:08.972Z,26.10
2019-03-02T08:32:06.574Z,26.10
2019-03-02T08:33:06.567Z,25.82
2019-03-02T08:34:09.716Z,25.73
2019-03-02T08:35:06.557Z,25.25
2019-03-02T08:36:06.549Z,25.06
2019-03-02T08:37:06.545Z,24.96
2019-03-02T08:38:06.540Z,24.77
2019-03-02T08:39:06.826Z,24.11
2019-03-02T08:40:06.526Z,24.40
2019-03-02T08:41:06.521Z,24.30
2019-03-02T08:42:08.831Z,24.21
2019-03-02T08:43:06.508Z,24.40
2019-03-02T08:44:06.502Z,24.21
2019-03-02T08:45:06.497Z,24.11
2019-03-02T08:46:07.422Z,24.30
2019-03-02T08:47:09.107Z,24.21
2019-03-02T08:48:06.480Z,24.40
2019-03-02T08:49:07.125Z,25.15
2019-03-02T08:50:06.467Z,25.82
2019-03-02T08:51:06.461Z,25.73
2019-03-02T08:52:06.455Z,26.01
2019-03-02T08:53:06.450Z,27.34
2019-03-02T08:54:06.445Z,27.25
2019-03-02T08:55:06.439Z,27.91
2019-03-02T08:56:09.892Z,28.00
2019-03-02T08:57:06.426Z,28.00
2019-03-02T08:58:06.421Z,27.53
2019-03-02T08:59:06.416Z,28.57
2019-03-02T09:00:06.409Z,28.38
2019-03-02T09:01:06.405Z,28.77
2019-03-02T09:02:06.396Z,28.19
2019-03-02T09:03:06.396Z,28.57
2019-03-02T09:04:06.385Z,28.10
2019-03-02T09:05:06.379Z,28.77
2019-03-02T09:06:11.525Z,28.29
2019-03-02T09:07:07.900Z,27.53
2019-03-02T09:08:06.365Z,27.25
2019-03-02T09:09:06.447Z,27.15
2019-03-02T09:10:06.351Z,27.06
2019-03-02T09:11:06.345Z,26.67
2019-03-02T09:12:06.338Z,26.48
2019-03-02T09:13:06.333Z,27.25
2019-03-02T09:14:09.548Z,27.15
2019-03-02T09:15:06.327Z,27.15
2019-03-02T09:16:06.803Z,26.77
2019-03-02T09:17:06.310Z,27.15
2019-03-02T09:18:06.304Z,28.02
2019-03-02T09:19:06.298Z,27.91
2019-03-02T09:20:06.291Z,27.25
2019-03-02T09:21:08.943Z,27.34
2019-03-02T09:22:06.313Z,27.07
2019-03-02T09:23:06.275Z,27.16
2019-03-02T09:24:09.375Z,26.59
2019-03-02T09:25:06.262Z,26.31
2019-03-02T09:26:06.257Z,26.40
2019-03-02T09:27:06.251Z,26.40
2019-03-02T09:28:06.249Z,26.03
2019-03-02T09:29:06.240Z,26.40
2019-03-02T09:30:06.234Z,26.97
2019-03-02T09:31:06.228Z,27.26
2019-03-02T09:32:06.222Z,27.16
2019-03-02T09:33:06.216Z,27.36
2019-03-02T09:34:06.215Z,27.45
2019-03-02T09:35:06.206Z,26.50
2019-03-02T09:36:06.199Z,26.12
2019-03-02T09:37:07.104Z,26.21
2019-03-02T09:38:06.188Z,25.93
2019-03-02T09:39:06.184Z,25.26
2019-03-02T09:40:06.176Z,25.26
2019-03-02T09:41:06.175Z,25.26
2019-03-02T09:42:06.165Z,25.36
2019-03-02T09:43:06.159Z,25.74
2019-03-02T09:44:06.152Z,25.36
2019-03-02T09:45:07.633Z,25.36
2019-03-02T09:46:07.461Z,25.36
2019-03-02T09:47:09.025Z,25.07
2019-03-02T09:48:06.129Z,25.45
2019-03-02T09:49:07.386Z,25.26
2019-03-02T09:50:06.120Z,24.79
2019-03-02T09:51:06.116Z,24.88
2019-03-02T09:52:06.107Z,24.79
2019-03-02T09:53:06.102Z,24.51
2019-03-02T09:54:06.097Z,24.41
2019-03-02T09:55:06.091Z,24.88
2019-03-02T09:56:06.085Z,24.41
2019-03-02T09:57:06.083Z,23.84
2019-03-02T09:58:06.436Z,23.84
2019-03-02T09:59:06.068Z,23.65
2019-03-02T10:00:06.062Z,23.36
2019-03-02T10:01:06.056Z,23.27
2019-03-02T10:02:06.054Z,23.57
2019-03-02T10:03:06.046Z,24.22
2019-03-02T10:04:06.295Z,24.42
2019-03-02T10:05:06.034Z,24.90
2019-03-02T10:06:06.029Z,24.52
2019-03-02T10:07:06.023Z,24.22
2019-03-02T10:08:06.017Z,24.42
2019-03-02T10:09:06.012Z,24.61
2019-03-02T10:10:06.006Z,24.23
2019-03-02T10:11:07.210Z,25.27
2019-03-02T10:12:05.999Z,25.27
2019-03-02T10:13:08.033Z,24.90
2019-03-02T10:14:05.984Z,24.33
2019-03-02T10:15:05.981Z,24.22
2019-03-02T10:16:05.987Z,23.38
2019-03-02T10:17:05.967Z,23.85
2019-03-02T10:18:05.961Z,23.75
2019-03-02T10:19:05.957Z,23.38
2019-03-02T10:20:06.571Z,23.00
2019-03-02T10:21:05.946Z,23.66
2019-03-02T10:22:05.939Z,23.38
2019-03-02T10:23:06.896Z,23.57
2019-03-02T10:24:05.927Z,23.94
2019-03-02T10:25:05.923Z,23.38
2019-03-02T10:26:07.294Z,23.75
2019-03-02T10:27:06.111Z,24.04
2019-03-02T10:28:05.905Z,24.13
2019-03-02T10:29:06.924Z,24.13
2019-03-02T10:30:05.896Z,24.52
2019-03-02T10:31:06.096Z,24.33
2019-03-02T10:32:05.883Z,24.52
2019-03-02T10:33:05.879Z,24.71
2019-03-02T10:34:06.413Z,25.56
2019-03-02T10:35:05.869Z,25.37
2019-03-02T10:36:05.863Z,25.09
2019-03-02T10:37:07.283Z,25.85
2019-03-02T10:38:05.852Z,25.94
2019-03-02T10:39:05.848Z,25.94
2019-03-02T10:40:08.772Z,25.85
2019-03-02T10:41:07.300Z,25.75
2019-03-02T10:42:05.830Z,25.85
2019-03-02T10:43:07.383Z,26.13
2019-03-02T10:44:05.819Z,26.79
2019-03-02T10:45:05.816Z,26.62
2019-03-02T10:46:05.811Z,27.19
2019-03-02T10:47:05.803Z,27.18
2019-03-02T10:48:05.799Z,27.27
2019-03-02T10:49:06.954Z,27.09
2019-03-02T10:50:05.788Z,28.23
2019-03-02T10:51:05.784Z,28.60
2019-03-02T10:52:05.777Z,28.41
2019-03-02T10:53:05.771Z,28.33
2019-03-02T10:54:05.766Z,28.81
2019-03-02T10:55:08.461Z,28.79
2019-03-02T10:56:06.062Z,28.14
2019-03-02T10:57:05.751Z,28.42
2019-03-02T10:58:05.752Z,28.23
2019-03-02T10:59:05.740Z,28.33
2019-03-02T11:00:05.734Z,28.14
2019-03-02T11:01:07.189Z,28.33
2019-03-02T11:02:05.725Z,28.33
2019-03-02T11:03:05.719Z,28.14
2019-03-02T11:04:08.373Z,28.42
2019-03-02T11:05:05.708Z,28.42
2019-03-02T11:06:07.157Z,28.42
2019-03-02T11:07:09.415Z,27.19
2019-03-02T11:08:05.694Z,27.09
2019-03-02T11:09:05.688Z,28.05
2019-03-02T11:10:05.682Z,27.86
2019-03-02T11:11:05.678Z,28.05
2019-03-02T11:12:06.817Z,28.14
2019-03-02T11:13:05.666Z,27.86
2019-03-02T11:14:05.663Z,27.28
2019-03-02T11:15:07.574Z,27.38
2019-03-02T11:16:05.652Z,27.48
2019-03-02T11:17:05.647Z,27.19
2019-03-02T11:18:05.644Z,27.19
2019-03-02T11:19:07.969Z,27.19
2019-03-02T11:20:05.631Z,26.62
2019-03-02T11:21:05.626Z,26.72
2019-03-02T11:22:05.620Z,26.81
2019-03-02T11:23:05.616Z,26.14
2019-03-02T11:24:05.611Z,26.62
2019-03-02T11:25:05.607Z,26.34
2019-03-02T11:26:05.599Z,26.43
2019-03-02T11:27:05.595Z,26.14
2019-03-02T11:28:05.589Z,26.14
2019-03-02T11:29:05.585Z,26.72
2019-03-02T11:30:05.579Z,27.57
2019-03-02T11:31:05.574Z,27.48
2019-03-02T11:32:05.568Z,29.09
2019-03-02T11:33:05.564Z,28.52
2019-03-02T11:34:05.558Z,28.52
2019-03-02T11:35:06.891Z,28.23
2019-03-02T11:36:05.549Z,30.04
2019-03-02T11:37:05.543Z,30.52
2019-03-02T11:38:05.541Z,30.14
2019-03-02T11:39:05.532Z,31.18
2019-03-02T11:40:05.527Z,32.14
2019-03-02T11:41:09.208Z,33.09
2019-03-02T11:42:05.517Z,33.94
2019-03-02T11:43:05.516Z,34.61
2019-03-02T11:44:05.506Z,34.51
2019-03-02T11:45:05.501Z,33.47
2019-03-02T11:46:05.496Z,33.28
2019-03-02T11:47:05.491Z,32.62
2019-03-02T11:48:09.231Z,32.62
2019-03-02T11:49:05.482Z,33.39
2019-03-02T11:50:05.494Z,34.15
2019-03-02T11:51:05.472Z,33.77
2019-03-02T11:52:05.467Z,35.19
2019-03-02T11:53:05.460Z,35.19
2019-03-02T11:54:05.456Z,37.29
2019-03-02T11:55:05.459Z,38.24
2019-03-02T11:56:06.606Z,37.67
2019-03-02T11:57:07.798Z,37.76
2019-03-02T11:58:05.439Z,37.67
2019-03-02T11:59:06.043Z,38.14
2019-03-02T12:00:05.426Z,39.38
2019-03-02T12:01:05.423Z,39.86
2019-03-02T12:02:15.173Z,39.19
2019-03-02T12:03:05.412Z,40.16
2019-03-02T12:04:05.415Z,42.16
2019-03-02T12:05:05.401Z,43.30
2019-03-02T12:06:05.918Z,43.51
2019-03-02T12:07:05.392Z,46.47
2019-03-02T12:08:05.388Z,46.75
2019-03-02T12:09:05.385Z,49.61
2019-03-02T12:10:06.276Z,52.18
2019-03-02T12:11:07.055Z,52.28
2019-03-02T12:12:05.371Z,54.85
2019-03-02T12:13:05.366Z,55.80
2019-03-02T12:14:06.069Z,55.32
2019-03-02T12:15:05.356Z,54.27
2019-03-02T12:16:05.353Z,51.80
2019-03-02T12:17:06.044Z,51.61
2019-03-02T12:18:05.345Z,55.61
2019-03-02T12:19:05.438Z,59.23
2019-03-02T12:20:08.879Z,57.32
2019-03-02T12:21:05.332Z,55.04
2019-03-02T12:22:05.329Z,56.65
2019-03-02T12:23:05.325Z,55.51
2019-03-02T12:24:14.543Z,54.94
2019-03-02T12:25:05.315Z,54.75
2019-03-02T12:26:07.869Z,53.13
2019-03-02T12:27:05.309Z,54.18
2019-03-02T12:28:05.304Z,55.61
2019-03-02T12:29:09.116Z,57.13
2019-03-02T12:30:05.297Z,55.42
2019-03-02T12:31:05.296Z,57.32
2019-03-02T12:32:07.560Z,58.65
2019-03-02T12:33:05.286Z,57.32
2019-03-02T12:34:07.455Z,56.27
2019-03-02T12:35:05.278Z,58.97
2019-03-02T12:36:05.278Z,59.74
2019-03-02T12:37:05.269Z,59.35
2019-03-02T12:38:07.297Z,61.83
2019-03-02T12:39:07.168Z,61.35
2019-03-02T12:40:05.257Z,63.35
2019-03-02T12:41:05.255Z,64.97
2019-03-02T12:42:05.250Z,62.88
2019-03-02T12:43:07.550Z,61.16
2019-03-02T12:44:05.242Z,59.83
2019-03-02T12:45:05.244Z,61.73
2019-03-02T12:46:05.322Z,63.17
2019-03-02T12:47:05.236Z,63.26
2019-03-02T12:48:05.229Z,62.12
2019-03-02T12:49:06.920Z,63.64
2019-03-02T12:50:05.222Z,64.78
2019-03-02T12:51:05.219Z,66.97
2019-03-02T12:52:05.215Z,66.05
2019-03-02T12:53:05.211Z,65.77
2019-03-02T12:54:06.206Z,67.20